Time;durP1;ratioP1;P1;durP2;ratioP2;P2;SDS_P1;SDS_P2;PMS_P1;PMS_P2;Temp;Humidity;BMP_temperature;BMP_pressure;BME280_temperature;BME280_humidity;BME280_pressure;Samples;Min_cycle;Max_cycle;Signal;HPM_P1;HPM_P2
2021/12/09 00:00:04;;;;;;;2.70;1.87;;;;;;;;;;5033752;28;20488;-66
2021/12/09 00:02:32;;;;;;;2.00;1.80;;;;;;;;;;5039130;28;20429;-67
2021/12/09 00:04:58;;;;;;;3.00;2.40;;;;;;;;;;5053560;28;20400;-67
2021/12/09 00:07:24;;;;;;;2.47;2.00;;;;;;;;;;5053446;28;20418;-66
2021/12/09 00:09:51;;;;;;;6.40;2.47;;;;;;;;;;5048633;28;20427;-67
2021/12/09 00:12:17;;;;;;;2.50;1.93;;;;;;;;;;5033568;28;20438;-67
2021/12/09 00:14:43;;;;;;;2.30;1.97;;;;;;;;;;5033534;28;20451;-67
2021/12/09 00:17:10;;;;;;;5.13;2.07;;;;;;;;;;5033389;28;20443;-66
2021/12/09 00:19:37;;;;;;;2.43;1.70;;;;;;;;;;5048598;28;20478;-67
2021/12/09 00:22:04;;;;;;;5.50;2.47;;;;;;;;;;5052891;28;20460;-67
2021/12/09 00:24:30;;;;;;;2.53;1.60;;;;;;;;;;5053305;28;20415;-67
2021/12/09 00:26:57;;;;;;;1.80;1.63;;;;;;;;;;5052360;28;20429;-66
2021/12/09 00:29:24;;;;;;;7.70;2.37;;;;;;;;;;5051909;28;21021;-68
2021/12/09 00:31:50;;;;;;;2.50;1.70;;;;;;;;;;5053121;28;20501;-67
2021/12/09 00:34:17;;;;;;;6.00;2.10;;;;;;;;;;5053193;28;20454;-67
2021/12/09 00:36:56;;;;;;;3.07;1.60;;;;;;;;;;5034966;28;20418;-66
2021/12/09 00:39:22;;;;;;;2.33;1.60;;;;;;;;;;5033049;28;20466;-67
2021/12/09 00:41:48;;;;;;;3.67;2.00;;;;;;;;;;5033197;28;20432;-68
2021/12/09 00:44:15;;;;;;;2.93;1.83;;;;;;;;;;5042890;28;20429;-68
2021/12/09 00:46:41;;;;;;;3.37;1.87;;;;;;;;;;5052970;28;20398;-67
2021/12/09 00:49:07;;;;;;;2.83;1.80;;;;;;;;;;5052945;28;20806;-68
2021/12/09 00:51:34;;;;;;;3.57;2.13;;;;;;;;;;5049544;28;20441;-67
2021/12/09 00:54:00;;;;;;;1.97;1.60;;;;;;;;;;5033089;28;20410;-68
2021/12/09 00:56:26;;;;;;;2.73;1.60;;;;;;;;;;5032808;28;20626;-67
2021/12/09 00:58:53;;;;;;;4.67;1.90;;;;;;;;;;5032878;28;20506;-67
2021/12/09 01:01:19;;;;;;;2.37;1.63;;;;;;;;;;5033081;28;20989;-67
2021/12/09 01:03:46;;;;;;;3.60;1.40;;;;;;;;;;5032974;28;20887;-68
2021/12/09 01:06:12;;;;;;;3.67;2.00;;;;;;;;;;5032942;28;20470;-67
2021/12/09 01:08:38;;;;;;;1.40;1.27;;;;;;;;;;5035497;28;20529;-67
2021/12/09 01:11:05;;;;;;;1.97;1.60;;;;;;;;;;5052851;28;20886;-67
2021/12/09 01:13:31;;;;;;;3.60;2.10;;;;;;;;;;5052778;28;20454;-67
2021/12/09 01:15:57;;;;;;;3.90;1.73;;;;;;;;;;5050135;28;20471;-67
2021/12/09 01:18:24;;;;;;;2.87;1.50;;;;;;;;;;5032805;28;20532;-66
2021/12/09 01:20:50;;;;;;;4.17;2.23;;;;;;;;;;5031503;28;20454;-68
2021/12/09 01:23:16;;;;;;;2.37;1.83;;;;;;;;;;5032796;28;20419;-67
2021/12/09 01:25:43;;;;;;;5.40;1.97;;;;;;;;;;5032595;28;20436;-67
2021/12/09 01:28:17;;;;;;;6.00;2.60;;;;;;;;;;5032715;28;20411;-67
2021/12/09 01:30:45;;;;;;;2.60;1.90;;;;;;;;;;5032889;28;20397;-67
2021/12/09 01:33:11;;;;;;;5.27;2.43;;;;;;;;;;5035748;28;20406;-67
2021/12/09 01:35:40;;;;;;;3.87;2.07;;;;;;;;;;5052559;28;20403;-67
2021/12/09 01:38:12;;;;;;;6.90;2.43;;;;;;;;;;5052514;28;20460;-66
2021/12/09 01:40:39;;;;;;;2.17;2.00;;;;;;;;;;5052380;28;20463;-66
2021/12/09 01:43:05;;;;;;;2.50;2.30;;;;;;;;;;5036065;28;20582;-65
2021/12/09 01:45:32;;;;;;;2.70;2.40;;;;;;;;;;5034334;28;20398;-65
2021/12/09 01:47:58;;;;;;;2.90;2.30;;;;;;;;;;5036216;28;20417;-68
2021/12/09 01:50:24;;;;;;;4.97;2.67;;;;;;;;;;5039924;28;20437;-69
2021/12/09 01:52:50;;;;;;;3.60;2.40;;;;;;;;;;5056032;28;20468;-67
2021/12/09 01:55:17;;;;;;;5.27;3.60;;;;;;;;;;5056044;28;20409;-66
2021/12/09 01:57:46;;;;;;;2.97;2.67;;;;;;;;;;5055681;28;20515;-66
2021/12/09 02:00:13;;;;;;;5.17;2.77;;;;;;;;;;5054966;28;20433;-67
2021/12/09 02:02:43;;;;;;;4.80;2.93;;;;;;;;;;5055784;28;20953;-66
2021/12/09 02:05:10;;;;;;;3.43;3.07;;;;;;;;;;5055906;28;20426;-66
2021/12/09 02:07:36;;;;;;;3.97;3.20;;;;;;;;;;5049061;28;20410;-67
2021/12/09 02:10:04;;;;;;;3.70;3.27;;;;;;;;;;5034553;28;20517;-67
2021/12/09 02:12:30;;;;;;;4.87;3.43;;;;;;;;;;5035865;28;20411;-66
2021/12/09 02:14:59;;;;;;;5.33;3.37;;;;;;;;;;5038025;28;20464;-67
2021/12/09 02:17:29;;;;;;;3.93;3.10;;;;;;;;;;5048522;28;20422;-67
2021/12/09 02:19:59;;;;;;;3.70;3.40;;;;;;;;;;5055400;28;20466;-66
2021/12/09 02:22:27;;;;;;;5.80;3.70;;;;;;;;;;5055435;28;20490;-66
2021/12/09 02:24:54;;;;;;;4.70;3.90;;;;;;;;;;5055423;28;20938;-66
2021/12/09 02:27:20;;;;;;;5.23;4.00;;;;;;;;;;5054178;28;20516;-67
2021/12/09 02:29:46;;;;;;;8.57;4.70;;;;;;;;;;5055272;28;20829;-67
2021/12/09 02:32:12;;;;;;;6.00;4.27;;;;;;;;;;5055268;28;20411;-65
2021/12/09 02:34:38;;;;;;;7.27;3.80;;;;;;;;;;5054021;28;20759;-68
2021/12/09 02:37:04;;;;;;;6.97;4.27;;;;;;;;;;5035911;28;20481;-66
2021/12/09 02:39:31;;;;;;;11.43;5.37;;;;;;;;;;5033738;28;20973;-67
2021/12/09 02:41:58;;;;;;;12.13;4.57;;;;;;;;;;5035285;28;20409;-66
2021/12/09 02:44:24;;;;;;;5.70;4.30;;;;;;;;;;5035222;28;20768;-67
2021/12/09 02:46:53;;;;;;;8.73;5.00;;;;;;;;;;5054164;28;20481;-66
2021/12/09 02:49:20;;;;;;;5.23;4.10;;;;;;;;;;5053698;28;20427;-67
2021/12/09 02:51:47;;;;;;;5.97;4.37;;;;;;;;;;5054875;28;20513;-67
2021/12/09 02:54:15;;;;;;;11.43;5.73;;;;;;;;;;5054038;28;20796;-66
2021/12/09 02:56:41;;;;;;;7.93;7.13;;;;;;;;;;5053594;28;20462;-67
2021/12/09 02:59:08;;;;;;;8.70;4.13;;;;;;;;;;5054633;28;20531;-66
2021/12/09 03:01:36;;;;;;;5.70;4.00;;;;;;;;;;5053929;28;20917;-67
2021/12/09 03:04:04;;;;;;;6.03;4.23;;;;;;;;;;5054578;28;20410;-67
2021/12/09 03:06:33;;;;;;;8.57;4.80;;;;;;;;;;5054730;28;20415;-67
2021/12/09 03:09:02;;;;;;;9.07;3.60;;;;;;;;;;5054634;28;20415;-66
2021/12/09 03:11:28;;;;;;;6.70;3.57;;;;;;;;;;5053727;28;20517;-67
2021/12/09 03:13:54;;;;;;;8.30;4.07;;;;;;;;;;5054390;28;20824;-67
2021/12/09 03:16:22;;;;;;;8.77;3.80;;;;;;;;;;5054572;28;20415;-66
2021/12/09 03:18:50;;;;;;;11.03;4.30;;;;;;;;;;5054287;28;20475;-67
2021/12/09 03:21:20;;;;;;;6.00;3.60;;;;;;;;;;5053574;28;20423;-66
2021/12/09 03:23:47;;;;;;;8.80;4.30;;;;;;;;;;5054190;28;20513;-67
2021/12/09 03:26:13;;;;;;;7.53;4.17;;;;;;;;;;5054216;28;20489;-66
2021/12/09 03:28:39;;;;;;;8.40;4.40;;;;;;;;;;5038670;28;20430;-66
2021/12/09 03:31:05;;;;;;;7.50;3.70;;;;;;;;;;5034189;28;20399;-66
2021/12/09 03:33:32;;;;;;;5.77;3.67;;;;;;;;;;5032906;28;20424;-66
2021/12/09 03:36:06;;;;;;;11.00;3.50;;;;;;;;;;5034106;28;20419;-65
2021/12/09 03:38:33;;;;;;;6.70;3.90;;;;;;;;;;5034111;28;20557;-66
2021/12/09 03:40:59;;;;;;;11.03;4.17;;;;;;;;;;5034084;28;20409;-67
2021/12/09 03:43:25;;;;;;;7.27;4.33;;;;;;;;;;5033992;28;20411;-66
2021/12/09 03:45:54;;;;;;;6.80;3.83;;;;;;;;;;5034026;28;20415;-67
2021/12/09 03:48:21;;;;;;;12.40;4.63;;;;;;;;;;5032667;28;20412;-66
2021/12/09 03:50:47;;;;;;;7.37;4.13;;;;;;;;;;5033807;28;20442;-67
2021/12/09 03:53:13;;;;;;;8.17;4.20;;;;;;;;;;5033835;28;20408;-68
2021/12/09 03:55:40;;;;;;;8.23;5.00;;;;;;;;;;5033553;28;20410;-66
2021/12/09 03:58:06;;;;;;;8.50;4.13;;;;;;;;;;5033686;28;20470;-65
2021/12/09 04:00:32;;;;;;;10.20;4.60;;;;;;;;;;5033670;28;20776;-66
2021/12/09 04:02:58;;;;;;;12.20;4.83;;;;;;;;;;5033656;28;20457;-67
2021/12/09 04:05:24;;;;;;;5.27;4.43;;;;;;;;;;5033486;28;20431;-67
2021/12/09 04:07:51;;;;;;;7.87;4.00;;;;;;;;;;5032175;28;20407;-67
2021/12/09 04:10:17;;;;;;;8.87;5.07;;;;;;;;;;5032432;28;20426;-67
2021/12/09 04:12:43;;;;;;;8.67;4.40;;;;;;;;;;5033384;28;20411;-66
2021/12/09 04:15:11;;;;;;;9.53;4.80;;;;;;;;;;5033546;28;20450;-66
2021/12/09 04:17:37;;;;;;;5.10;4.30;;;;;;;;;;5032897;28;20438;-66
2021/12/09 04:20:08;;;;;;;5.43;3.97;;;;;;;;;;5050760;28;20552;-66
2021/12/09 04:22:34;;;;;;;6.33;4.00;;;;;;;;;;5049878;28;20414;-66
2021/12/09 04:25:00;;;;;;;12.27;4.30;;;;;;;;;;5053242;28;20442;-67
2021/12/09 04:27:27;;;;;;;4.93;4.20;;;;;;;;;;5053291;28;20434;-67
2021/12/09 04:29:53;;;;;;;6.10;3.90;;;;;;;;;;5052469;28;20438;-66
2021/12/09 04:32:19;;;;;;;7.17;4.07;;;;;;;;;;5053190;28;20403;-67
2021/12/09 04:34:46;;;;;;;4.50;3.50;;;;;;;;;;5053322;28;20457;-66
2021/12/09 04:37:12;;;;;;;11.80;4.60;;;;;;;;;;5047588;28;20479;-67
2021/12/09 04:39:38;;;;;;;8.70;3.80;;;;;;;;;;5031798;28;20486;-66
2021/12/09 04:42:05;;;;;;;6.50;3.57;;;;;;;;;;5031947;28;20514;-67
2021/12/09 04:44:31;;;;;;;7.37;3.00;;;;;;;;;;5033036;28;20407;-66
2021/12/09 04:46:57;;;;;;;5.93;3.83;;;;;;;;;;5033459;28;20408;-66
2021/12/09 04:49:24;;;;;;;11.13;3.80;;;;;;;;;;5032976;28;20435;-67
2021/12/09 04:51:50;;;;;;;11.63;3.40;;;;;;;;;;5033064;28;20416;-67
2021/12/09 04:54:16;;;;;;;2.90;2.63;;;;;;;;;;5032847;28;20438;-67
2021/12/09 04:56:42;;;;;;;7.73;3.20;;;;;;;;;;5032779;28;20455;-67
2021/12/09 04:59:08;;;;;;;5.03;3.10;;;;;;;;;;5032936;28;20954;-66
2021/12/09 05:01:34;;;;;;;6.77;3.40;;;;;;;;;;5031869;28;20419;-66
2021/12/09 05:04:01;;;;;;;7.27;3.20;;;;;;;;;;5032824;28;20461;-67
2021/12/09 05:06:29;;;;;;;8.07;3.07;;;;;;;;;;5033051;28;20552;-67
2021/12/09 05:08:55;;;;;;;5.57;3.10;;;;;;;;;;5032952;28;20403;-67
2021/12/09 05:11:48;;;;;;;9.20;3.73;;;;;;;;;;5032767;28;20427;-67
2021/12/09 05:14:18;;;;;;;9.37;3.07;;;;;;;;;;5032828;28;20409;-66
2021/12/09 05:16:45;;;;;;;3.27;2.50;;;;;;;;;;5032813;28;20414;-66
2021/12/09 05:19:11;;;;;;;4.47;3.50;;;;;;;;;;5032637;28;20498;-66
2021/12/09 05:21:39;;;;;;;5.43;2.40;;;;;;;;;;5051137;28;20414;-67
2021/12/09 05:24:06;;;;;;;10.40;2.90;;;;;;;;;;5055167;28;20407;-65
2021/12/09 05:26:39;;;;;;;5.60;2.70;;;;;;;;;;5056516;28;20890;-66
2021/12/09 05:29:05;;;;;;;5.97;2.60;;;;;;;;;;5055707;28;20420;-66
2021/12/09 05:34:16;;;;;;;4.53;2.33;;;;;;;;;;5056415;28;20393;-65
2021/12/09 05:36:42;;;;;;;6.73;2.10;;;;;;;;;;5056249;28;20468;-67
2021/12/09 05:39:09;;;;;;;4.60;2.23;;;;;;;;;;5037760;28;20486;-66
2021/12/09 05:41:36;;;;;;;5.10;2.40;;;;;;;;;;5036272;28;20951;-66
2021/12/09 05:44:02;;;;;;;5.60;2.70;;;;;;;;;;5035041;28;20477;-66
2021/12/09 05:46:28;;;;;;;9.70;2.70;;;;;;;;;;5038114;28;20513;-67
2021/12/09 05:48:55;;;;;;;4.33;2.20;;;;;;;;;;5056080;28;20415;-67
2021/12/09 05:51:24;;;;;;;4.73;2.20;;;;;;;;;;5056146;28;20420;-68
2021/12/09 05:53:51;;;;;;;4.50;2.60;;;;;;;;;;5055958;28;20405;-66
2021/12/09 05:56:17;;;;;;;6.03;2.53;;;;;;;;;;5052951;28;20519;-66
2021/12/09 05:58:43;;;;;;;6.77;3.37;;;;;;;;;;5035945;28;20863;-66
2021/12/09 06:01:09;;;;;;;9.93;2.87;;;;;;;;;;5035983;28;20419;-66
2021/12/09 06:03:35;;;;;;;2.27;2.03;;;;;;;;;;5035904;28;20391;-66
2021/12/09 06:06:01;;;;;;;3.67;2.33;;;;;;;;;;5041905;28;20452;-66
2021/12/09 06:08:27;;;;;;;7.17;2.23;;;;;;;;;;5055792;28;20414;-67
2021/12/09 06:10:54;;;;;;;4.40;2.47;;;;;;;;;;5055564;28;20476;-67
2021/12/09 06:13:22;;;;;;;6.53;1.93;;;;;;;;;;5054760;28;20434;-66
2021/12/09 06:15:48;;;;;;;2.33;2.10;;;;;;;;;;5054273;28;20456;-65
2021/12/09 06:18:14;;;;;;;5.00;2.37;;;;;;;;;;5055490;28;20515;-67
2021/12/09 06:20:40;;;;;;;4.40;2.23;;;;;;;;;;5055442;28;20933;-66
2021/12/09 06:23:06;;;;;;;3.37;2.00;;;;;;;;;;5051265;28;20512;-66
2021/12/09 06:25:32;;;;;;;4.73;2.00;;;;;;;;;;5052450;28;20779;-65
2021/12/09 06:27:58;;;;;;;4.03;2.13;;;;;;;;;;5035953;28;20422;-65
2021/12/09 06:30:25;;;;;;;5.67;2.33;;;;;;;;;;5044432;28;20419;-68
2021/12/09 06:32:51;;;;;;;5.37;2.37;;;;;;;;;;5055137;28;20884;-65
2021/12/09 06:35:18;;;;;;;6.03;2.67;;;;;;;;;;5055247;28;20438;-67
2021/12/09 06:37:46;;;;;;;2.60;2.20;;;;;;;;;;5054869;28;20417;-66
2021/12/09 06:40:13;;;;;;;4.03;2.53;;;;;;;;;;5054979;28;20899;-68
2021/12/09 06:42:40;;;;;;;5.50;2.57;;;;;;;;;;5055153;28;20886;-67
2021/12/09 06:45:07;;;;;;;3.70;2.37;;;;;;;;;;5055052;28;20419;-68
2021/12/09 06:47:33;;;;;;;5.47;2.80;;;;;;;;;;5055019;28;20414;-68
2021/12/09 06:49:59;;;;;;;3.00;2.63;;;;;;;;;;5036206;28;20448;-68
2021/12/09 06:52:25;;;;;;;6.37;2.90;;;;;;;;;;5034886;28;20433;-67
2021/12/09 06:54:51;;;;;;;2.80;2.30;;;;;;;;;;5034901;28;20754;-68
2021/12/09 06:57:17;;;;;;;4.63;2.13;;;;;;;;;;5034649;28;20955;-67
2021/12/09 06:59:43;;;;;;;3.97;2.50;;;;;;;;;;5034678;28;20482;-67
2021/12/09 07:02:09;;;;;;;2.87;2.63;;;;;;;;;;5034844;28;20415;-68
2021/12/09 07:04:35;;;;;;;5.07;2.47;;;;;;;;;;5034848;28;20907;-68
2021/12/09 07:07:01;;;;;;;4.80;2.40;;;;;;;;;;5046303;28;20426;-68
2021/12/09 07:09:29;;;;;;;4.07;2.33;;;;;;;;;;5054655;28;20410;-69
2021/12/09 07:11:56;;;;;;;5.30;2.10;;;;;;;;;;5054580;28;20471;-70
2021/12/09 07:14:22;;;;;;;2.37;2.00;;;;;;;;;;5054473;28;20495;-70
2021/12/09 07:16:48;;;;;;;4.30;2.33;;;;;;;;;;5053450;28;20477;-68
2021/12/09 07:19:14;;;;;;;4.57;2.60;;;;;;;;;;5054248;28;20484;-69
2021/12/09 07:21:40;;;;;;;3.70;2.73;;;;;;;;;;5054403;28;20398;-67
2021/12/09 07:24:06;;;;;;;3.37;2.40;;;;;;;;;;5053504;28;20561;-68
2021/12/09 07:26:32;;;;;;;3.50;2.83;;;;;;;;;;5053143;28;20867;-70
2021/12/09 07:28:59;;;;;;;4.63;2.63;;;;;;;;;;5053072;28;20458;-67
2021/12/09 07:31:25;;;;;;;4.27;2.60;;;;;;;;;;5054208;28;20772;-71
2021/12/09 07:33:52;;;;;;;5.10;2.07;;;;;;;;;;5034573;28;20428;-70
2021/12/09 07:36:18;;;;;;;2.53;2.33;;;;;;;;;;5034139;28;20497;-68
2021/12/09 07:38:46;;;;;;;7.70;3.50;;;;;;;;;;5033973;28;20479;-70
2021/12/09 07:41:12;;;;;;;3.93;2.50;;;;;;;;;;5033892;28;20782;-71
2021/12/09 07:43:38;;;;;;;3.40;2.73;;;;;;;;;;5032270;28;20416;-70
2021/12/09 07:46:04;;;;;;;8.80;2.47;;;;;;;;;;5034086;28;20414;-70
2021/12/09 07:48:30;;;;;;;17.37;3.10;;;;;;;;;;5033920;28;20772;-71
2021/12/09 07:50:57;;;;;;;3.80;2.60;;;;;;;;;;5040064;28;20816;-70
2021/12/09 07:53:23;;;;;;;8.50;2.90;;;;;;;;;;5053817;28;20426;-72
2021/12/09 07:55:50;;;;;;;3.27;2.70;;;;;;;;;;5053514;28;20402;-70
2021/12/09 07:58:16;;;;;;;4.00;2.30;;;;;;;;;;5053694;28;20464;-70
2021/12/09 08:00:42;;;;;;;4.87;3.00;;;;;;;;;;5038473;28;20435;-71
2021/12/09 08:03:08;;;;;;;6.10;2.47;;;;;;;;;;5033774;28;20411;-72
2021/12/09 08:05:35;;;;;;;4.07;2.70;;;;;;;;;;5033775;28;20414;-70
2021/12/09 08:08:02;;;;;;;2.90;2.60;;;;;;;;;;5037600;28;20447;-68
2021/12/09 08:10:28;;;;;;;4.90;3.23;;;;;;;;;;5053542;28;20783;-68
2021/12/09 08:12:54;;;;;;;7.57;3.10;;;;;;;;;;5053011;28;20401;-70
2021/12/09 08:15:20;;;;;;;2.70;2.50;;;;;;;;;;5053535;28;20499;-68
2021/12/09 08:17:59;;;;;;;4.80;2.97;;;;;;;;;;5037504;28;20849;-69
2021/12/09 08:20:25;;;;;;;4.73;2.43;;;;;;;;;;5033323;28;20442;-67
2021/12/09 08:22:52;;;;;;;7.50;3.20;;;;;;;;;;5033324;28;20424;-69
2021/12/09 08:25:17;;;;;;;10.77;3.77;;;;;;;;;;5046077;28;20925;-68
2021/12/09 08:27:44;;;;;;;3.67;3.10;;;;;;;;;;5048580;28;20415;-69
2021/12/09 08:30:11;;;;;;;6.93;3.17;;;;;;;;;;5051871;28;20925;-68
2021/12/09 08:32:37;;;;;;;4.33;2.90;;;;;;;;;;5052458;28;20467;-69
2021/12/09 08:35:03;;;;;;;7.60;4.20;;;;;;;;;;5053099;28;20402;-68
2021/12/09 08:37:29;;;;;;;7.30;3.67;;;;;;;;;;5052955;28;20403;-68
2021/12/09 08:39:56;;;;;;;5.83;3.40;;;;;;;;;;5053026;28;20471;-68
2021/12/09 08:42:22;;;;;;;3.47;3.20;;;;;;;;;;5052199;28;20431;-70
2021/12/09 08:44:48;;;;;;;6.73;3.10;;;;;;;;;;5053037;28;20500;-71
2021/12/09 08:47:14;;;;;;;8.43;4.47;;;;;;;;;;5051758;28;20784;-71
2021/12/09 08:49:40;;;;;;;4.30;3.90;;;;;;;;;;5042504;28;20450;-70
2021/12/09 08:52:06;;;;;;;4.50;3.20;;;;;;;;;;5033027;28;20502;-70
2021/12/09 08:54:32;;;;;;;5.37;3.23;;;;;;;;;;5033255;28;20436;-72
2021/12/09 08:56:59;;;;;;;6.23;3.77;;;;;;;;;;5036925;28;20521;-69
2021/12/09 08:59:26;;;;;;;8.47;3.87;;;;;;;;;;5036901;28;20553;-70
2021/12/09 09:01:52;;;;;;;8.27;3.83;;;;;;;;;;5037132;28;20402;-70
2021/12/09 09:04:19;;;;;;;3.87;3.37;;;;;;;;;;5037050;28;20846;-70
2021/12/09 09:06:51;;;;;;;6.77;3.80;;;;;;;;;;5036983;28;20510;-70
2021/12/09 09:09:18;;;;;;;7.00;3.80;;;;;;;;;;5050007;28;20960;-70
2021/12/09 09:11:44;;;;;;;6.33;3.60;;;;;;;;;;5056728;28;20904;-69
2021/12/09 09:14:10;;;;;;;7.27;3.50;;;;;;;;;;5056840;28;20463;-69
2021/12/09 09:16:36;;;;;;;5.80;3.33;;;;;;;;;;5055929;28;20814;-69
2021/12/09 09:19:02;;;;;;;6.10;3.63;;;;;;;;;;5056554;28;20531;-68
2021/12/09 09:21:28;;;;;;;5.40;4.47;;;;;;;;;;5056562;28;20549;-69
2021/12/09 09:23:56;;;;;;;7.13;4.17;;;;;;;;;;5056647;28;20466;-69
2021/12/09 09:26:22;;;;;;;4.90;3.67;;;;;;;;;;5038494;28;20435;-70
2021/12/09 09:28:48;;;;;;;5.50;4.23;;;;;;;;;;5035243;28;20426;-71
2021/12/09 09:31:15;;;;;;;6.50;3.23;;;;;;;;;;5035315;28;20421;-71
2021/12/09 09:33:41;;;;;;;5.73;4.20;;;;;;;;;;5046535;28;20511;-70
2021/12/09 09:36:08;;;;;;;9.23;3.90;;;;;;;;;;5056515;28;20401;-70
2021/12/09 09:38:34;;;;;;;5.90;4.40;;;;;;;;;;5056245;28;20538;-70
2021/12/09 09:41:08;;;;;;;4.63;3.40;;;;;;;;;;5055145;28;20960;-71
2021/12/09 09:43:57;;;;;;;6.63;3.50;;;;;;;;;;5045070;28;20426;-71
2021/12/09 09:46:25;;;;;;;5.90;3.50;;;;;;;;;;5036391;28;20432;-71
2021/12/09 09:48:52;;;;;;;10.20;4.13;;;;;;;;;;5036089;28;20422;-70
2021/12/09 09:51:19;;;;;;;6.37;4.00;;;;;;;;;;5036178;28;20424;-68
2021/12/09 09:53:46;;;;;;;4.70;3.50;;;;;;;;;;5035831;28;20410;-71
2021/12/09 09:56:15;;;;;;;7.33;4.10;;;;;;;;;;5035876;28;20868;-70
2021/12/09 09:58:42;;;;;;;6.83;4.30;;;;;;;;;;5035836;28;20458;-70
2021/12/09 10:01:08;;;;;;;5.23;3.57;;;;;;;;;;5036185;28;20919;-69
2021/12/09 10:03:40;;;;;;;5.50;3.93;;;;;;;;;;5050630;28;20418;-68
2021/12/09 10:06:06;;;;;;;4.60;3.60;;;;;;;;;;5055306;28;20451;-69
2021/12/09 10:08:32;;;;;;;5.13;3.80;;;;;;;;;;5055805;28;20405;-71
2021/12/09 10:10:58;;;;;;;4.00;3.60;;;;;;;;;;5044991;28;20820;-71
2021/12/09 10:13:29;;;;;;;3.67;3.37;;;;;;;;;;5035846;28;20423;-69
2021/12/09 10:15:55;;;;;;;6.50;3.33;;;;;;;;;;5035865;28;20741;-69
2021/12/09 10:18:42;;;;;;;4.67;3.47;;;;;;;;;;5047904;28;20816;-71
2021/12/09 10:21:09;;;;;;;3.70;3.10;;;;;;;;;;5054761;28;20520;-71
2021/12/09 10:23:39;;;;;;;5.80;3.40;;;;;;;;;;5055483;28;20421;-72
2021/12/09 10:26:25;;;;;;;7.10;3.30;;;;;;;;;;5055403;28;20450;-71
2021/12/09 10:28:52;;;;;;;6.40;3.60;;;;;;;;;;5054582;28;20422;-71
2021/12/09 10:31:20;;;;;;;4.77;3.50;;;;;;;;;;5055293;28;20476;-70
2021/12/09 10:34:12;;;;;;;5.70;3.53;;;;;;;;;;5055295;28;20404;-72
2021/12/09 10:36:59;;;;;;;7.30;3.40;;;;;;;;;;5053237;28;20436;-71
2021/12/09 10:39:48;;;;;;;4.80;3.20;;;;;;;;;;5054327;28;20819;-73
2021/12/09 10:42:17;;;;;;;5.47;3.13;;;;;;;;;;5054616;28;20414;-71
2021/12/09 10:44:54;;;;;;;4.03;3.20;;;;;;;;;;5055169;28;20434;-72
2021/12/09 10:50:24;;;;;;;8.90;3.37;;;;;;;;;;5053953;28;20752;-72
2021/12/09 10:52:56;;;;;;;4.20;3.80;;;;;;;;;;5053685;28;20431;-70
2021/12/09 10:55:23;;;;;;;2.73;2.53;;;;;;;;;;5052884;28;20483;-71
2021/12/09 10:57:56;;;;;;;4.23;3.43;;;;;;;;;;5034646;28;20452;-72
2021/12/09 11:00:22;;;;;;;5.10;3.30;;;;;;;;;;5034943;28;20500;-70
2021/12/09 11:03:02;;;;;;;6.17;3.20;;;;;;;;;;5034754;28;20435;-70
2021/12/09 11:05:30;;;;;;;4.90;3.40;;;;;;;;;;5033681;28;20454;-69
2021/12/09 11:08:12;;;;;;;5.93;2.90;;;;;;;;;;5034881;28;20407;-71
2021/12/09 11:10:45;;;;;;;4.30;3.17;;;;;;;;;;5035006;28;20409;-71
2021/12/09 11:13:11;;;;;;;2.90;2.67;;;;;;;;;;5054638;28;20402;-71
2021/12/09 11:15:45;;;;;;;6.70;3.10;;;;;;;;;;5054629;28;20402;-70
2021/12/09 11:18:32;;;;;;;5.37;3.30;;;;;;;;;;5052490;28;20759;-71
2021/12/09 11:20:59;;;;;;;6.27;3.30;;;;;;;;;;5034651;28;20470;-71
2021/12/09 11:23:33;;;;;;;3.90;2.97;;;;;;;;;;5033191;28;20409;-71
2021/12/09 11:26:18;;;;;;;6.93;2.80;;;;;;;;;;5034629;28;20403;-69
2021/12/09 11:28:57;;;;;;;3.43;3.13;;;;;;;;;;5034385;28;20926;-71
2021/12/09 11:31:26;;;;;;;5.27;3.00;;;;;;;;;;5034339;28;20452;-71
2021/12/09 11:33:56;;;;;;;3.70;2.40;;;;;;;;;;5034118;28;20476;-71
2021/12/09 11:36:41;;;;;;;3.00;2.53;;;;;;;;;;5034286;28;20898;-71
2021/12/09 11:39:11;;;;;;;5.07;3.03;;;;;;;;;;5034035;28;20474;-71
2021/12/09 11:41:39;;;;;;;4.87;2.83;;;;;;;;;;5034079;28;20468;-69
2021/12/09 11:44:08;;;;;;;10.03;2.73;;;;;;;;;;5033980;28;20476;-70
2021/12/09 11:46:34;;;;;;;3.57;2.60;;;;;;;;;;5051890;28;20468;-71
2021/12/09 11:49:00;;;;;;;3.80;2.70;;;;;;;;;;5053857;28;20434;-71
2021/12/09 11:51:26;;;;;;;3.93;2.70;;;;;;;;;;5053809;28;20485;-71
2021/12/09 11:53:56;;;;;;;6.00;2.70;;;;;;;;;;5052985;28;20464;-70
2021/12/09 12:07:56;;;;;;;3.73;2.70;;;;;;;;;;5071426;28;20442;-71
2021/12/09 12:13:36;;;;;;;6.43;2.70;;;;;;;;;;5053279;28;20743;-71
2021/12/09 12:16:49;;;;;;;3.50;2.80;;;;;;;;;;5053135;28;20413;-69
2021/12/09 12:19:36;;;;;;;8.70;3.53;;;;;;;;;;5052162;28;20482;-70
2021/12/09 12:22:26;;;;;;;9.10;3.50;;;;;;;;;;5036148;28;20773;-71
2021/12/09 12:27:41;;;;;;;6.53;2.77;;;;;;;;;;5035792;28;20500;-70
2021/12/09 12:38:09;;;;;;;6.13;2.67;;;;;;;;;;5045780;28;20487;-70
2021/12/09 12:40:43;;;;;;;8.97;2.57;;;;;;;;;;5053072;28;20402;-70
2021/12/09 12:43:16;;;;;;;5.70;3.30;;;;;;;;;;5053078;28;20418;-67
2021/12/09 12:48:36;;;;;;;6.70;2.80;;;;;;;;;;5053084;28;20499;-70
2021/12/09 12:51:25;;;;;;;4.13;2.13;;;;;;;;;;5053052;28;20402;-68
2021/12/09 12:53:54;;;;;;;6.20;2.10;;;;;;;;;;5041147;28;20426;-66
2021/12/09 12:56:23;;;;;;;7.20;2.53;;;;;;;;;;5032847;28;20512;-68
2021/12/09 12:59:10;;;;;;;8.47;2.40;;;;;;;;;;5032904;28;20565;-70
2021/12/09 13:01:43;;;;;;;5.60;2.20;;;;;;;;;;5032991;28;20506;-70
2021/12/09 13:04:35;;;;;;;3.57;2.40;;;;;;;;;;5033034;28;20412;-68
2021/12/09 13:07:16;;;;;;;4.10;2.17;;;;;;;;;;5031625;28;20774;-71
2021/12/09 13:09:52;;;;;;;7.93;2.47;;;;;;;;;;5032935;28;20442;-70
2021/12/09 13:12:37;;;;;;;3.50;1.97;;;;;;;;;;5049843;28;20441;-71
2021/12/09 13:15:07;;;;;;;2.83;2.10;;;;;;;;;;5051657;28;20764;-70
2021/12/09 13:17:48;;;;;;;4.40;2.23;;;;;;;;;;5052764;28;20463;-70
2021/12/09 13:20:46;;;;;;;9.17;3.03;;;;;;;;;;5051854;28;20979;-70
2021/12/09 13:23:26;;;;;;;7.67;2.07;;;;;;;;;;5051342;28;20413;-70
2021/12/09 13:26:22;;;;;;;8.80;2.67;;;;;;;;;;5052688;28;20406;-70
2021/12/09 13:28:57;;;;;;;4.03;2.23;;;;;;;;;;5039600;28;20456;-69
2021/12/09 13:32:21;;;;;;;7.37;2.43;;;;;;;;;;5032742;28;20406;-70
2021/12/09 13:35:03;;;;;;;3.93;2.47;;;;;;;;;;5032675;28;20414;-69
2021/12/09 13:37:51;;;;;;;7.70;2.13;;;;;;;;;;5032454;28;20439;-68
2021/12/09 13:45:44;;;;;;;2.13;1.87;;;;;;;;;;5032629;28;20503;-67
2021/12/09 13:46:10;;;;;;;5.97;1.93;;;;;;;;;;5038900;28;20425;-67
2021/12/09 13:48:48;;;;;;;4.70;1.80;;;;;;;;;;5056216;28;20520;-68
2021/12/09 13:51:30;;;;;;;4.57;2.10;;;;;;;;;;5056227;28;20401;-68
2021/12/09 13:54:18;;;;;;;6.50;2.43;;;;;;;;;;5056138;28;20455;-68
2021/12/09 13:56:44;;;;;;;8.00;2.57;;;;;;;;;;5054916;28;20570;-68
2021/12/09 13:59:18;;;;;;;5.67;2.33;;;;;;;;;;5054665;28;20479;-68
2021/12/09 14:01:45;;;;;;;7.20;2.43;;;;;;;;;;5055891;28;20417;-68
2021/12/09 14:04:11;;;;;;;4.60;1.77;;;;;;;;;;5054971;28;20442;-68
2021/12/09 14:06:46;;;;;;;12.37;2.40;;;;;;;;;;5054116;28;20407;-68
2021/12/09 14:09:11;;;;;;;3.77;2.20;;;;;;;;;;5054558;28;20405;-69
2021/12/09 14:11:45;;;;;;;15.47;3.60;;;;;;;;;;5055691;28;20409;-68
2021/12/09 14:14:16;;;;;;;4.93;1.80;;;;;;;;;;5055007;28;20417;-69
2021/12/09 14:16:56;;;;;;;3.37;1.80;;;;;;;;;;5055545;28;20501;-68
2021/12/09 14:21:50;;;;;;;5.37;1.97;;;;;;;;;;5055442;28;20407;-68
2021/12/09 14:24:23;;;;;;;8.03;2.33;;;;;;;;;;5054733;28;20495;-68
2021/12/09 14:26:54;;;;;;;4.27;1.77;;;;;;;;;;5055491;28;20414;-69
2021/12/09 14:29:20;;;;;;;5.07;2.13;;;;;;;;;;5055496;28;20407;-70
2021/12/09 14:31:51;;;;;;;6.13;2.20;;;;;;;;;;5048100;28;20418;-70
2021/12/09 14:34:19;;;;;;;13.00;2.57;;;;;;;;;;5035410;28;20423;-70
2021/12/09 14:36:45;;;;;;;3.60;2.23;;;;;;;;;;5035232;28;20507;-69
2021/12/09 14:39:13;;;;;;;10.20;2.20;;;;;;;;;;5034840;28;20619;-70
2021/12/09 14:41:40;;;;;;;4.57;1.83;;;;;;;;;;5035147;28;20426;-68
2021/12/09 14:44:09;;;;;;;5.50;1.90;;;;;;;;;;5035130;28;20896;-70
2021/12/09 14:46:38;;;;;;;3.83;1.70;;;;;;;;;;5033757;28;20910;-68
2021/12/09 14:49:22;;;;;;;6.97;1.93;;;;;;;;;;5054914;28;20433;-68
2021/12/09 14:51:49;;;;;;;3.77;1.80;;;;;;;;;;5053517;28;20447;-70
2021/12/09 14:54:16;;;;;;;7.13;2.03;;;;;;;;;;5054947;28;20427;-70
2021/12/09 14:56:45;;;;;;;7.83;2.50;;;;;;;;;;5053613;28;20484;-69
2021/12/09 14:59:24;;;;;;;5.10;2.20;;;;;;;;;;5054690;28;20467;-69
2021/12/09 15:01:55;;;;;;;4.10;1.93;;;;;;;;;;5053409;28;20496;-68
2021/12/09 15:04:32;;;;;;;6.77;2.57;;;;;;;;;;5054059;28;20472;-68
2021/12/09 15:07:06;;;;;;;12.30;2.70;;;;;;;;;;5054687;28;20814;-68
2021/12/09 15:09:32;;;;;;;12.43;2.53;;;;;;;;;;5054730;28;20443;-70
2021/12/09 15:12:00;;;;;;;3.00;1.90;;;;;;;;;;5052781;28;20413;-71
2021/12/09 15:14:29;;;;;;;5.50;2.20;;;;;;;;;;5034606;28;20403;-69
2021/12/09 15:17:07;;;;;;;4.60;2.53;;;;;;;;;;5034492;28;20813;-70
2021/12/09 15:19:34;;;;;;;2.67;1.60;;;;;;;;;;5034296;28;20473;-69
2021/12/09 15:22:04;;;;;;;9.70;2.87;;;;;;;;;;5046825;28;20420;-69
2021/12/09 15:24:30;;;;;;;4.63;2.40;;;;;;;;;;5054293;28;20467;-69
2021/12/09 15:26:56;;;;;;;6.37;2.33;;;;;;;;;;5054319;28;20402;-69
2021/12/09 15:29:23;;;;;;;5.97;2.43;;;;;;;;;;5043922;28;20428;-69
2021/12/09 15:31:48;;;;;;;7.50;2.47;;;;;;;;;;5034293;28;20407;-69
2021/12/09 15:34:21;;;;;;;6.90;2.70;;;;;;;;;;5034248;28;20407;-69